Havtind — LCMP — position and weather

sailwx.info

Track history (hours):
 
Tides and Currents Weather Stations Pressure Air Temp Water Temp Dewpoint Dewpoint Depression Visibility Wind Speed Wind Dir Waves Ship Positions

Havtind

Last reported at 2018-May-16 00:00 UTC. Time now 2018-May-25 01:21 UTC.
Position N 70°38' E 018°57'.
Warning: this ship's position is 9 days out of date.

Length 60 m; draft 7.6 m.

Type: Fishing. MMSI: 259707000.

Date/timePositionNaut miles runAvg speedWind from/ knotsBaromVisibWave heightAir tempDewpointWater temp
2018-May-16 00:00N 70°38' E 018°57'612.7
2018-May-15 23:30N 70°33' E 019°06'612.7
2018-May-15 23:00N 70°27' E 019°14'612.4
2018-May-15 22:30N 70°21' E 019°22'612.1
2018-May-15 22:00N 70°16' E 019°27'612.3
2018-May-15 21:30N 70°10' E 019°33'612.5
2018-May-15 21:00N 70°04' E 019°39'611.9
2018-May-15 20:30N 69°58' E 019°40'612.2
2018-May-15 20:00N 69°53' E 019°28'612.6
2018-May-15 19:30N 69°48' E 019°18'612.5
2018-May-15 19:00N 69°44' E 019°04'510.0
2018-May-15 18:30N 69°40' E 018°59'0 0.7
2018-May-15 18:00N 69°40' E 018°58'0 0.0
2018-May-15 17:30N 69°40' E 018°58'0 0.0
2018-May-15 17:00N 69°40' E 018°58'0 0.0
2018-May-15 16:30N 69°40' E 018°58'1 1.3
2018-May-15 16:00N 69°39' E 018°58'1 2.7
2018-May-15 15:30N 69°38' E 018°57'0 0.0
2018-May-15 15:00N 69°38' E 018°57'0 0.0
2018-May-15 14:30N 69°38' E 018°57'0 0.0
2018-May-15 14:00N 69°38' E 018°57'0 0.0
2018-May-15 13:30N 69°38' E 018°57'0 0.0
2018-May-15 13:00N 69°38' E 018°57'0 0.0
2018-May-15 12:30N 69°38' E 018°57'0 0.0
2018-May-15 12:00N 69°38' E 018°57'0 0.0
2018-May-15 11:30N 69°38' E 018°57'0 0.0
2018-May-15 11:00N 69°38' E 018°57'0 0.0
2018-May-15 10:30N 69°38' E 018°57'0 0.0
2018-May-15 10:00N 69°38' E 018°57'0 0.0
2018-May-15 09:30N 69°38' E 018°57'0 0.0
2018-May-15 09:00N 69°38' E 018°57'0 0.0
2018-May-15 08:30N 69°38' E 018°57'0 0.0
2018-May-15 08:00N 69°38' E 018°57'0 0.0
2018-May-15 07:30N 69°38' E 018°57'0 0.0
2018-May-15 07:00N 69°38' E 018°57'0 0.0
2018-May-15 06:30N 69°38' E 018°57'0 0.0
2018-May-15 06:00N 69°38' E 018°57'0 0.0
2018-May-15 05:30N 69°38' E 018°57'0 0.0
2018-May-15 05:00N 69°38' E 018°57'0 0.0
2018-May-15 04:30N 69°38' E 018°57'0 0.2
2018-May-15 04:00N 69°38' E 018°56'2 3.5
2018-May-15 03:30N 69°36' E 018°54'2 3.1
2018-May-15 03:00N 69°35' E 018°51'2 4.7
2018-May-15 02:30N 69°34' E 018°45'3 5.6
2018-May-15 02:00N 69°33' E 018°37'3 5.6
2018-May-15 01:30N 69°32' E 018°30'1 2.8
2018-May-15 01:00N 69°32' E 018°26'1 2.7
2018-May-15 00:29N 69°31' E 018°22'2 3.2
2018-May-14 23:59N 69°31' E 018°18'2 3.4
2018-May-14 23:30N 69°31' E 018°13'2 3.1
2018-May-14 23:00N 69°30' E 018°09'2 3.0
2018-May-14 22:30N 69°31' E 018°05'3 5.2
2018-May-14 22:00N 69°33' E 017°59'3 5.7
2018-May-14 21:30N 69°35' E 017°55'3 6.6
2018-May-14 21:00N 69°38' E 017°50'3 5.5
2018-May-14 20:30N 69°41' E 017°48'1 2.6
2018-May-14 19:59N 69°42' E 017°46'3 5.5
2018-May-14 19:29N 69°45' E 017°44'2 4.3
2018-May-14 19:00N 69°47' E 017°43'2 4.4
2018-May-14 18:30N 69°49' E 017°42'1 1.8
2018-May-14 18:00N 69°50' E 017°42'2 4.4
2018-May-14 17:30N 69°52' E 017°41'2 4.4
2018-May-14 17:00N 69°54' E 017°39'2 4.3
2018-May-14 16:30N 69°56' E 017°37'2 4.2
2018-May-14 16:00N 69°58' E 017°36'2 4.2
2018-May-14 15:30N 69°60' E 017°34'2 4.3
2018-May-14 14:59N 70°02' E 017°32'2 4.0
2018-May-14 14:30N 70°04' E 017°31'2 3.6
2018-May-14 13:59N 70°06' E 017°29'  
2018-May-08 21:14N 71°33' E 025°26'3 0.2
2018-May-08 06:31N 71°32' E 025°18'0 6.7
2018-May-08 06:30N 71°32' E 025°18'3 6.9
2018-May-08 06:00N 71°29' E 025°26'612.3
2018-May-08 05:30N 71°24' E 025°37'612.1
2018-May-08 05:00N 71°20' E 025°49'611.9
2018-May-08 04:30N 71°15' E 026°01'612.1
2018-May-08 03:59N 71°10' E 026°13'611.6
2018-May-08 03:30N 71°05' E 026°20'610.8
2018-May-08 02:59N 70°60' E 026°15'611.8
2018-May-08 02:30N 70°58' E 025°59'1 2.2
2018-May-08 02:00N 70°59' E 025°57'2 3.7
2018-May-08 01:30N 70°58' E 026°02'510.9
2018-May-08 01:00N 71°00' E 026°17'510.5
2018-May-08 00:30N 71°05' E 026°21'611.7
2018-May-08 00:00N 71°11' E 026°17'611.7
2018-May-07 23:30N 71°16' E 026°06'611.9
2018-May-07 23:00N 71°20' E 025°53'613.0
2018-May-07 22:30N 71°24' E 025°38'713.5
2018-May-07 22:00N 71°29' E 025°22'6 2.4
2018-May-07 19:40N 71°30' E 025°06'1 4.0
2018-May-07 19:30N 71°30' E 025°06'2 3.6
2018-May-07 19:00N 71°30' E 025°12'2 3.3
2018-May-07 18:30N 71°31' E 025°16'  
Track history (hours):
 
Tides and Currents Weather Stations Pressure Air Temp Water Temp Dewpoint Dewpoint Depression Visibility Wind Speed Wind Dir Waves Ship Positions

Havtind

Last reported at 2018-May-16 00:00 UTC. Time now 2018-May-25 01:21 UTC.
Position N 70°38' E 018°57'.
Warning: this ship's position is 9 days out of date.

Length 60 m; draft 7.6 m.

Type: Fishing. MMSI: 259707000.

Date/timePositionNaut miles runAvg speedWind from/ knotsBaromVisibWave heightAir tempDewpointWater temp
2018-May-16 00:00N 70°38' E 018°57'612.7
2018-May-15 23:30N 70°33' E 019°06'612.7
2018-May-15 23:00N 70°27' E 019°14'612.4
2018-May-15 22:30N 70°21' E 019°22'612.1
2018-May-15 22:00N 70°16' E 019°27'612.3
2018-May-15 21:30N 70°10' E 019°33'612.5
2018-May-15 21:00N 70°04' E 019°39'611.9
2018-May-15 20:30N 69°58' E 019°40'612.2
2018-May-15 20:00N 69°53' E 019°28'612.6
2018-May-15 19:30N 69°48' E 019°18'612.5
2018-May-15 19:00N 69°44' E 019°04'510.0
2018-May-15 18:30N 69°40' E 018°59'0 0.7
2018-May-15 18:00N 69°40' E 018°58'0 0.0
2018-May-15 17:30N 69°40' E 018°58'0 0.0
2018-May-15 17:00N 69°40' E 018°58'0 0.0
2018-May-15 16:30N 69°40' E 018°58'1 1.3
2018-May-15 16:00N 69°39' E 018°58'1 2.7
2018-May-15 15:30N 69°38' E 018°57'0 0.0
2018-May-15 15:00N 69°38' E 018°57'0 0.0
2018-May-15 14:30N 69°38' E 018°57'0 0.0
2018-May-15 14:00N 69°38' E 018°57'0 0.0
2018-May-15 13:30N 69°38' E 018°57'0 0.0
2018-May-15 13:00N 69°38' E 018°57'0 0.0
2018-May-15 12:30N 69°38' E 018°57'0 0.0
2018-May-15 12:00N 69°38' E 018°57'0 0.0
2018-May-15 11:30N 69°38' E 018°57'0 0.0
2018-May-15 11:00N 69°38' E 018°57'0 0.0
2018-May-15 10:30N 69°38' E 018°57'0 0.0
2018-May-15 10:00N 69°38' E 018°57'0 0.0
2018-May-15 09:30N 69°38' E 018°57'0 0.0
2018-May-15 09:00N 69°38' E 018°57'0 0.0
2018-May-15 08:30N 69°38' E 018°57'0 0.0
2018-May-15 08:00N 69°38' E 018°57'0 0.0
2018-May-15 07:30N 69°38' E 018°57'0 0.0
2018-May-15 07:00N 69°38' E 018°57'0 0.0
2018-May-15 06:30N 69°38' E 018°57'0 0.0
2018-May-15 06:00N 69°38' E 018°57'0 0.0
2018-May-15 05:30N 69°38' E 018°57'0 0.0
2018-May-15 05:00N 69°38' E 018°57'0 0.0
2018-May-15 04:30N 69°38' E 018°57'0 0.2
2018-May-15 04:00N 69°38' E 018°56'2 3.5
2018-May-15 03:30N 69°36' E 018°54'2 3.1
2018-May-15 03:00N 69°35' E 018°51'2 4.7
2018-May-15 02:30N 69°34' E 018°45'3 5.6
2018-May-15 02:00N 69°33' E 018°37'3 5.6
2018-May-15 01:30N 69°32' E 018°30'1 2.8
2018-May-15 01:00N 69°32' E 018°26'1 2.7
2018-May-15 00:29N 69°31' E 018°22'2 3.2
2018-May-14 23:59N 69°31' E 018°18'2 3.4
2018-May-14 23:30N 69°31' E 018°13'2 3.1
2018-May-14 23:00N 69°30' E 018°09'2 3.0
2018-May-14 22:30N 69°31' E 018°05'3 5.2
2018-May-14 22:00N 69°33' E 017°59'3 5.7
2018-May-14 21:30N 69°35' E 017°55'3 6.6
2018-May-14 21:00N 69°38' E 017°50'3 5.5
2018-May-14 20:30N 69°41' E 017°48'1 2.6
2018-May-14 19:59N 69°42' E 017°46'3 5.5
2018-May-14 19:29N 69°45' E 017°44'2 4.3
2018-May-14 19:00N 69°47' E 017°43'2 4.4
2018-May-14 18:30N 69°49' E 017°42'1 1.8
2018-May-14 18:00N 69°50' E 017°42'2 4.4
2018-May-14 17:30N 69°52' E 017°41'2 4.4
2018-May-14 17:00N 69°54' E 017°39'2 4.3
2018-May-14 16:30N 69°56' E 017°37'2 4.2
2018-May-14 16:00N 69°58' E 017°36'2 4.2
2018-May-14 15:30N 69°60' E 017°34'2 4.3
2018-May-14 14:59N 70°02' E 017°32'2 4.0
2018-May-14 14:30N 70°04' E 017°31'2 3.6
2018-May-14 13:59N 70°06' E 017°29'  
2018-May-08 21:14N 71°33' E 025°26'3 0.2
2018-May-08 06:31N 71°32' E 025°18'0 6.7
2018-May-08 06:30N 71°32' E 025°18'3 6.9
2018-May-08 06:00N 71°29' E 025°26'612.3
2018-May-08 05:30N 71°24' E 025°37'612.1
2018-May-08 05:00N 71°20' E 025°49'611.9
2018-May-08 04:30N 71°15' E 026°01'612.1
2018-May-08 03:59N 71°10' E 026°13'611.6
2018-May-08 03:30N 71°05' E 026°20'610.8
2018-May-08 02:59N 70°60' E 026°15'611.8
2018-May-08 02:30N 70°58' E 025°59'1 2.2
2018-May-08 02:00N 70°59' E 025°57'2 3.7
2018-May-08 01:30N 70°58' E 026°02'510.9
2018-May-08 01:00N 71°00' E 026°17'510.5
2018-May-08 00:30N 71°05' E 026°21'611.7
2018-May-08 00:00N 71°11' E 026°17'611.7
2018-May-07 23:30N 71°16' E 026°06'611.9
2018-May-07 23:00N 71°20' E 025°53'613.0
2018-May-07 22:30N 71°24' E 025°38'713.5
2018-May-07 22:00N 71°29' E 025°22'6 2.4
2018-May-07 19:40N 71°30' E 025°06'1 4.0
2018-May-07 19:30N 71°30' E 025°06'2 3.6
2018-May-07 19:00N 71°30' E 025°12'2 3.3
2018-May-07 18:30N 71°31' E 025°16'  

Dump ship's entire track history